Benton Harbor, MI

1:03 PM EST on March 06, 2015 (GMT -0500)
Bernice Riverview | Change Station
CLOSE
Current Station
Personal Weather Station
Location: St. Joseph, MI
Elevation: 659 ft
Nearby Weather Stations

Elev 659 ft 42.10 °N, 86.47 °W | Updated 6 minutes ago

Partly Cloudy
Partly Cloudy
16.6 °F
Feels Like 5 °F
N
9.9
Wind Variable Wind from SSE

Today
High -- | Low -- °F
--% Chance of Precip.
Yesterday
High -- | Low -- °F
Precip. -- in
7:13 AM 6:41 PM
Full, 99% visible
Pressure 30.40 in
Visibility 10.0 miles
Clouds Few 9500 ft
Windchill 5 °F
Dew Point 4 °F
Humidity 56%
Rainfall in
Snow Depth Not available.
UV 5 out of 12
Pollen .50 out of 12
Air Quality Not available.
Flu Activity Not available.
METAR KBEH 061753Z AUTO 19013G20KT 10SM FEW095 M08/M16 A3036 RMK AO2 SLP295 T10831161 11083 21167 58029

More Conditions Fewer Conditions

Pressure 30.40 in
Visibility 10.0 miles
Clouds Few 9500 ft
Windchill 5 °F
Dew Point 4 °F
Humidity 56%
Rainfall in
Snow Depth Not available.
UV 5 out of 12
Pollen .50 out of 12
Air Quality Not available.
Flu Activity Not available.
METAR KBEH 061753Z AUTO 19013G20KT 10SM FEW095 M08/M16 A3036 RMK AO2 SLP295 T10831161 11083 21167 58029

More Conditions Fewer Conditions

10-Day Weather Forecast

Almanac

Astronomy

Mar. 06, 2015 Rise Set
Actual Time
Civil Twilight
Nautical Twilight
Astronomical Twilight
Moon
Length of Visible Light
Length of Day
Tomorrow will be .
, % of the Moon is Illuminated

Today's Extremes

State Highs State Lows

Community

WunderPhotos

Upload Photos

1,803,357 photos uploaded!

WunderBlogs® & News

Nearby

Air Quality

  Air Quality AQ Index Pollutant
Not available.

Snow Depth

Station Depth Elevation

Earthquake Activity

City Distance Mag. Time & Date
Minimum magnitude displayed is 2.5.

Coastal Water Temperatures

Place Temperature

Nearby Weather Stations